Time;durP1;ratioP1;P1;durP2;ratioP2;P2;SDS_P1;SDS_P2;PMS_P1;PMS_P2;Temp;Humidity;BMP_temperature;BMP_pressure;BME280_temperature;BME280_humidity;BME280_pressure;Samples;Min_cycle;Max_cycle;Signal;HPM_P1;HPM_P2
2021/11/26 00:01:14;;;;;;;55.92;31.05;;;;;;;7.63;61.22;99090.56;4466153;32;33895;-52
2021/11/26 00:03:42;;;;;;;52.83;30.95;;;;;;;7.57;61.44;99075.88;4465973;32;33608;-53
2021/11/26 00:06:10;;;;;;;53.35;30.12;;;;;;;7.64;61.39;99068.97;4465979;32;34715;-55
2021/11/26 00:08:37;;;;;;;53.85;31.45;;;;;;;7.50;61.74;99071.56;4465903;32;35192;-51
2021/11/26 00:11:05;;;;;;;52.40;30.30;;;;;;;7.52;61.70;99072.44;4465774;32;34125;-57
2021/11/26 00:13:38;;;;;;;49.75;30.65;;;;;;;7.52;61.72;99077.59;4464376;32;34373;-53
2021/11/26 00:16:08;;;;;;;54.08;29.63;;;;;;;7.45;61.90;99066.41;4465646;32;35283;-55
2021/11/26 00:18:41;;;;;;;50.30;30.52;;;;;;;7.63;61.27;99062.94;4464560;32;33137;-54
2021/11/26 00:21:10;;;;;;;51.03;30.37;;;;;;;7.65;61.32;99053.47;4465283;32;33431;-51
2021/11/26 00:23:38;;;;;;;53.28;32.28;;;;;;;7.68;61.22;99040.50;4464408;32;34169;-53
2021/11/26 00:26:05;;;;;;;50.38;31.02;;;;;;;7.64;61.45;99033.59;4464558;32;34773;-52
2021/11/26 00:28:33;;;;;;;52.08;30.80;;;;;;;7.63;61.50;99031.03;4465568;32;35023;-56
2021/11/26 00:31:00;;;;;;;49.80;30.67;;;;;;;7.53;61.69;99032.75;4465744;32;33789;-52
2021/11/26 00:33:28;;;;;;;50.95;30.42;;;;;;;7.50;61.92;99043.97;4465489;32;34126;-54
2021/11/26 00:35:56;;;;;;;50.95;31.80;;;;;;;7.63;61.63;99041.37;4464390;32;35487;-57
2021/11/26 00:38:23;;;;;;;50.53;31.12;;;;;;;7.55;61.84;99043.97;4465508;32;34188;-55
2021/11/26 00:40:51;;;;;;;52.17;30.80;;;;;;;7.58;61.86;99032.75;4464549;32;34189;-55
2021/11/26 00:43:19;;;;;;;47.85;29.77;;;;;;;7.58;61.92;99035.34;4463899;32;33813;-55
2021/11/26 00:45:49;;;;;;;48.80;29.90;;;;;;;7.68;61.47;99022.38;4465340;32;36173;-52
2021/11/26 00:48:17;;;;;;;50.03;30.40;;;;;;;7.63;61.69;99021.53;4465447;32;35771;-54
2021/11/26 00:50:44;;;;;;;51.90;31.17;;;;;;;7.58;61.88;99014.66;4465598;32;33656;-55
2021/11/26 00:53:12;;;;;;;52.20;31.00;;;;;;;7.63;61.54;98998.22;4465615;32;34651;-55
2021/11/26 00:55:40;;;;;;;49.05;30.60;;;;;;;7.71;61.27;99001.69;4465426;32;36091;-56
2021/11/26 00:58:07;;;;;;;50.42;30.37;;;;;;;7.56;61.76;99009.44;4465330;32;35126;-51
2021/11/26 01:00:35;;;;;;;48.17;28.67;;;;;;;7.65;61.39;99011.19;4465090;32;34132;-55
2021/11/26 01:03:05;;;;;;;50.42;29.73;;;;;;;7.67;61.42;99006.88;4464046;32;34915;-55
2021/11/26 01:05:33;;;;;;;48.55;28.75;;;;;;;7.80;61.09;99005.97;4465148;32;36065;-53
2021/11/26 01:08:00;;;;;;;46.47;29.40;;;;;;;7.90;60.79;99023.22;4463893;32;35087;-56
2021/11/26 01:10:28;;;;;;;47.10;29.35;;;;;;;7.82;61.04;99031.00;4464443;32;34256;-57
2021/11/26 01:12:56;;;;;;;47.10;28.85;;;;;;;7.79;61.28;99019.78;4465338;32;35018;-57
2021/11/26 01:15:26;;;;;;;45.35;27.05;;;;;;;7.73;61.47;99022.38;4464284;32;34909;-54
2021/11/26 01:17:54;;;;;;;49.65;30.00;;;;;;;7.90;60.96;99007.69;4465125;32;35220;-55
2021/11/26 01:20:26;;;;;;;47.92;29.25;;;;;;;7.93;60.92;99002.50;4465142;32;33424;-54
2021/11/26 01:22:54;;;;;;;48.80;28.77;;;;;;;7.89;61.07;98990.44;4465179;32;33879;-55
2021/11/26 01:25:22;;;;;;;47.60;28.25;;;;;;;7.94;60.89;98979.19;4464233;32;34512;-56
2021/11/26 01:27:50;;;;;;;51.35;29.65;;;;;;;7.79;61.23;98980.97;4464698;32;34251;-53
2021/11/26 01:30:26;;;;;;;44.05;28.38;;;;;;;7.85;61.05;98986.97;4465016;32;33496;-56
2021/11/26 01:32:55;;;;;;;46.88;29.55;;;;;;;7.99;60.72;98986.94;4464776;32;34103;-52
2021/11/26 01:35:23;;;;;;;46.58;29.98;;;;;;;7.82;61.02;98989.56;4464735;32;34758;-58
2021/11/26 01:37:51;;;;;;;47.42;28.87;;;;;;;7.91;60.78;98968.84;4451098;32;34207;-55
2021/11/26 01:40:19;;;;;;;48.20;29.85;;;;;;;7.96;60.71;98961.06;4464702;32;33845;-55
2021/11/26 01:42:49;;;;;;;47.40;29.37;;;;;;;8.06;60.41;98965.34;4465626;32;34759;-53
2021/11/26 01:45:17;;;;;;;45.50;28.60;;;;;;;7.99;60.54;98967.09;4466765;32;34793;-54
2021/11/26 01:47:45;;;;;;;46.72;29.30;;;;;;;7.97;60.39;98950.69;4466772;32;34526;-53
2021/11/26 01:50:13;;;;;;;47.22;28.85;;;;;;;7.92;60.50;98936.91;4466961;32;33804;-55
2021/11/26 01:52:41;;;;;;;48.20;28.83;;;;;;;7.91;60.61;98929.16;4466098;32;34294;-53
2021/11/26 01:55:10;;;;;;;46.88;29.45;;;;;;;7.79;60.95;98926.59;4467233;32;35772;-55
2021/11/26 01:57:37;;;;;;;46.78;29.05;;;;;;;7.88;60.70;98921.38;4467277;32;35023;-51
2021/11/26 02:00:11;;;;;;;46.30;29.95;;;;;;;7.87;60.69;98915.34;4467472;32;33940;-50
2021/11/26 02:02:42;;;;;;;49.13;28.67;;;;;;;7.91;60.52;98926.56;4467378;32;34600;-54
2021/11/26 02:05:09;;;;;;;47.95;27.90;;;;;;;7.86;60.52;98917.94;4466102;32;35631;-51
2021/11/26 02:07:37;;;;;;;46.03;29.08;;;;;;;7.93;60.39;98909.28;4467404;32;36510;-52
2021/11/26 02:10:05;;;;;;;49.95;29.15;;;;;;;7.94;60.39;98913.63;4467101;32;33503;-58
2021/11/26 02:12:33;;;;;;;44.95;26.40;;;;;;;7.97;60.37;98908.41;4465857;32;34223;-55
2021/11/26 02:15:00;;;;;;;48.38;28.87;;;;;;;8.00;60.17;98901.50;4467123;32;36020;-54
2021/11/26 02:17:28;;;;;;;42.50;27.10;;;;;;;8.01;60.20;98886.84;4467186;32;34265;-54
2021/11/26 02:19:57;;;;;;;45.00;27.65;;;;;;;8.08;60.05;98884.19;4467396;32;33312;-51
2021/11/26 02:22:26;;;;;;;50.08;28.10;;;;;;;8.01;60.31;98873.87;4467091;32;34708;-55
2021/11/26 02:24:54;;;;;;;43.85;26.83;;;;;;;8.19;59.79;98881.56;4467251;32;35327;-56
2021/11/26 02:27:22;;;;;;;45.50;27.83;;;;;;;8.03;60.38;98866.97;4467295;32;34928;-55
2021/11/26 02:29:55;;;;;;;44.55;27.08;;;;;;;7.96;60.72;98847.16;4467192;32;33854;-54
2021/11/26 02:32:24;;;;;;;40.10;25.65;;;;;;;7.93;60.83;98841.97;4467365;32;34765;-54
2021/11/26 02:34:52;;;;;;;48.72;26.87;;;;;;;8.03;60.66;98833.31;4467347;32;36120;-50
2021/11/26 02:37:20;;;;;;;42.92;25.50;;;;;;;7.89;61.03;98856.66;4465968;32;34335;-58
2021/11/26 02:39:47;;;;;;;48.35;28.83;;;;;;;7.93;61.02;98837.66;4467200;32;34057;-57
2021/11/26 02:42:26;;;;;;;46.08;28.92;;;;;;;8.08;60.49;98840.16;4466823;32;34177;-51
2021/11/26 02:44:54;;;;;;;39.83;25.52;;;;;;;7.95;61.00;98829.88;4465502;32;34639;-51
2021/11/26 02:47:21;;;;;;;42.35;27.52;;;;;;;7.97;60.87;98813.47;4466937;32;34516;-52
2021/11/26 02:49:49;;;;;;;42.90;26.45;;;;;;;7.94;61.03;98823.84;4466552;32;33635;-56
2021/11/26 02:52:16;;;;;;;42.15;25.40;;;;;;;7.97;61.01;98833.31;4466983;32;35009;-52
2021/11/26 02:54:44;;;;;;;40.42;26.17;;;;;;;8.00;60.96;98815.19;4464831;32;35125;-54
2021/11/26 02:57:11;;;;;;;41.13;26.48;;;;;;;7.90;61.28;98801.44;4466951;32;34727;-55
2021/11/26 02:59:39;;;;;;;45.90;25.77;;;;;;;7.94;61.24;98802.28;4452954;32;33029;-55
2021/11/26 03:02:07;;;;;;;39.70;24.75;;;;;;;8.12;60.82;98792.66;4467013;32;33979;-52
2021/11/26 03:04:34;;;;;;;43.50;25.83;;;;;;;7.92;61.44;98783.28;4467077;32;34973;-51
2021/11/26 03:07:04;;;;;;;41.58;25.73;;;;;;;8.01;61.13;98780.66;4465941;32;34665;-56
2021/11/26 03:09:32;;;;;;;45.35;26.50;;;;;;;7.82;61.70;98758.34;4467230;32;34192;-54
2021/11/26 03:11:59;;;;;;;43.38;26.90;;;;;;;7.85;61.55;98759.16;4467445;32;33741;-50
2021/11/26 03:14:27;;;;;;;42.65;25.88;;;;;;;7.88;61.55;98753.13;4466914;32;34727;-50
2021/11/26 03:16:54;;;;;;;42.33;25.98;;;;;;;7.83;61.72;98757.44;4465772;32;34937;-57
2021/11/26 03:19:22;;;;;;;40.28;25.50;;;;;;;7.86;61.69;98760.03;4466094;32;34377;-56
2021/11/26 03:21:50;;;;;;;41.90;25.98;;;;;;;7.66;62.28;98746.31;4467241;32;34200;-56
2021/11/26 03:24:17;;;;;;;42.90;26.45;;;;;;;7.84;61.79;98748.84;4467049;32;34959;-55
2021/11/26 03:26:45;;;;;;;45.85;27.37;;;;;;;7.91;61.63;98763.47;4466934;32;34738;-53
2021/11/26 03:29:13;;;;;;;38.97;26.17;;;;;;;7.93;61.55;98777.25;4467126;32;33747;-54
2021/11/26 03:31:40;;;;;;;38.75;25.85;;;;;;;8.05;61.10;98800.47;4467100;32;34154;-56
2021/11/26 03:34:08;;;;;;;40.75;24.52;;;;;;;8.04;61.10;98788.38;4466835;32;35291;-53
2021/11/26 03:36:36;;;;;;;41.00;25.95;;;;;;;7.94;61.61;98763.44;4466987;32;34246;-53
2021/11/26 03:39:04;;;;;;;40.53;23.90;;;;;;;8.03;61.26;98742.66;4466684;32;33585;-54
2021/11/26 03:41:31;;;;;;;45.03;25.05;;;;;;;7.97;61.43;98735.78;4466909;32;34656;-53
2021/11/26 03:43:59;;;;;;;40.90;25.23;;;;;;;7.88;61.81;98753.13;4466780;32;35658;-54
2021/11/26 03:46:26;;;;;;;40.08;25.40;;;;;;;7.95;61.48;98755.66;4466529;32;34490;-55
2021/11/26 03:48:54;;;;;;;46.05;25.55;;;;;;;8.04;61.23;98767.69;4466651;32;33824;-54
2021/11/26 03:51:22;;;;;;;41.95;25.12;;;;;;;7.99;61.39;98756.47;4467012;32;33789;-53
2021/11/26 03:53:49;;;;;;;43.08;25.45;;;;;;;8.19;60.72;98731.31;4465565;32;35280;-53
2021/11/26 03:56:17;;;;;;;41.17;25.37;;;;;;;7.85;61.81;98727.22;4465487;32;35072;-55
2021/11/26 03:58:45;;;;;;;44.20;25.85;;;;;;;7.85;61.83;98740.19;4466334;32;34613;-53
2021/11/26 04:01:12;;;;;;;39.50;25.12;;;;;;;7.96;61.60;98738.41;4466479;32;34110;-55
2021/11/26 04:03:40;;;;;;;40.97;25.05;;;;;;;7.93;61.74;98744.47;4466900;32;34831;-55
2021/11/26 04:06:07;;;;;;;44.55;24.95;;;;;;;7.96;61.72;98735.81;4466605;32;34377;-52
2021/11/26 04:08:35;;;;;;;41.08;25.88;;;;;;;7.96;61.73;98728.03;4466612;32;35023;-55
2021/11/26 04:11:03;;;;;;;40.88;24.70;;;;;;;7.97;61.66;98734.94;4465248;32;34993;-55
2021/11/26 04:13:31;;;;;;;40.50;24.70;;;;;;;7.86;62.02;98729.84;4466051;32;35056;-57
2021/11/26 04:16:05;;;;;;;39.45;23.20;;;;;;;7.84;62.24;98733.31;4466274;32;34525;-56
2021/11/26 04:18:34;;;;;;;40.85;24.70;;;;;;;7.83;62.43;98731.56;4466207;32;33768;-52
2021/11/26 04:21:02;;;;;;;37.65;23.52;;;;;;;7.84;62.47;98728.13;4466437;32;34344;-55
2021/11/26 04:23:31;;;;;;;38.15;22.95;;;;;;;7.90;62.36;98717.72;4466234;32;34877;-55
2021/11/26 04:25:58;;;;;;;34.85;22.52;;;;;;;8.03;61.90;98716.78;4466132;32;34817;-51
2021/11/26 04:28:26;;;;;;;35.72;21.83;;;;;;;8.15;61.57;98698.56;4466289;32;34198;-50
2021/11/26 04:30:54;;;;;;;35.22;22.15;;;;;;;8.05;61.96;98702.09;4465875;32;34046;-57
2021/11/26 04:33:22;;;;;;;37.20;21.42;;;;;;;8.05;61.95;98700.34;4466142;32;35783;-56
2021/11/26 04:35:49;;;;;;;33.75;22.10;;;;;;;7.92;62.38;98701.31;4466309;32;35075;-55
2021/11/26 04:38:17;;;;;;;38.47;22.50;;;;;;;7.95;62.36;98709.06;4466228;32;33849;-51
2021/11/26 04:40:45;;;;;;;33.40;21.85;;;;;;;7.99;62.24;98702.97;4466212;32;33778;-53
2021/11/26 04:43:13;;;;;;;34.05;21.23;;;;;;;8.26;61.48;98703.63;4464502;32;36386;-54
2021/11/26 04:45:40;;;;;;;34.83;22.08;;;;;;;8.29;61.44;98694.16;4464815;32;34761;-53
2021/11/26 04:48:09;;;;;;;33.08;21.42;;;;;;;8.10;61.90;98696.00;4466020;32;34168;-53
2021/11/26 04:50:36;;;;;;;32.60;20.90;;;;;;;8.24;61.60;98682.06;4452009;32;33649;-53
2021/11/26 04:53:04;;;;;;;37.55;20.98;;;;;;;8.43;60.92;98684.53;4465680;32;35739;-56
2021/11/26 04:55:32;;;;;;;33.17;20.85;;;;;;;7.95;62.50;98697.84;4465899;32;34594;-51
2021/11/26 04:57:59;;;;;;;35.08;20.95;;;;;;;8.05;62.24;98690.00;4465893;32;33636;-54
2021/11/26 05:00:28;;;;;;;33.88;19.73;;;;;;;8.15;61.81;98672.66;4464839;32;35343;-52
2021/11/26 05:02:56;;;;;;;36.38;21.50;;;;;;;8.11;62.00;98681.31;4465902;32;34678;-54
2021/11/26 05:05:23;;;;;;;30.98;20.30;;;;;;;8.08;61.91;98689.13;4465894;32;34403;-51
2021/11/26 05:07:52;;;;;;;34.00;20.88;;;;;;;8.01;62.23;98677.09;4465910;32;35390;-56
2021/11/26 05:10:20;;;;;;;33.17;20.23;;;;;;;8.23;61.42;98668.25;4465571;32;33786;-56
2021/11/26 05:12:56;;;;;;;30.48;19.95;;;;;;;8.19;61.45;98666.56;4465510;32;34948;-50
2021/11/26 05:15:27;;;;;;;34.15;21.23;;;;;;;8.21;61.26;98649.28;4464456;32;35072;-53
2021/11/26 05:18:00;;;;;;;30.17;19.30;;;;;;;8.22;61.38;98648.41;4466986;32;33962;-56
2021/11/26 05:20:29;;;;;;;33.88;20.10;;;;;;;8.25;61.30;98644.94;4467824;32;33865;-52
2021/11/26 05:22:57;;;;;;;30.70;19.67;;;;;;;8.25;61.21;98648.38;4467902;32;34900;-55
2021/11/26 05:25:25;;;;;;;33.17;20.60;;;;;;;8.06;61.80;98646.81;4466611;32;34350;-52
2021/11/26 05:27:53;;;;;;;32.63;19.92;;;;;;;8.29;61.07;98634.56;4466641;32;34339;-55
2021/11/26 05:30:21;;;;;;;30.10;18.58;;;;;;;8.19;61.30;98636.34;4467806;32;34230;-52
2021/11/26 05:32:50;;;;;;;30.15;19.70;;;;;;;8.24;61.29;98635.44;4467873;32;35987;-53
2021/11/26 05:35:18;;;;;;;30.00;18.98;;;;;;;8.22;61.35;98638.06;4467779;32;34334;-52
2021/11/26 05:37:47;;;;;;;29.90;18.37;;;;;;;8.49;60.57;98631.75;4467897;32;34154;-57
2021/11/26 05:40:15;;;;;;;32.08;20.23;;;;;;;8.29;61.07;98620.75;4467959;32;33679;-50
2021/11/26 05:42:43;;;;;;;29.10;18.92;;;;;;;8.25;61.22;98622.47;4467833;32;35700;-55
2021/11/26 05:45:12;;;;;;;30.12;19.37;;;;;;;8.12;61.58;98626.94;4466931;32;35605;-53
2021/11/26 05:47:40;;;;;;;29.85;19.08;;;;;;;8.10;61.64;98620.03;4468126;32;33391;-53
2021/11/26 05:50:10;;;;;;;32.50;19.10;;;;;;;8.07;61.70;98615.75;4453540;32;33418;-53
2021/11/26 05:52:38;;;;;;;30.48;18.48;;;;;;;8.11;61.65;98613.97;4467426;32;35172;-54
2021/11/26 05:55:09;;;;;;;28.27;19.20;;;;;;;8.03;61.75;98603.69;4467456;32;34494;-55
2021/11/26 05:57:36;;;;;;;30.37;17.60;;;;;;;7.94;62.17;98621.06;4453697;32;33998;-54
2021/11/26 06:00:06;;;;;;;30.52;18.98;;;;;;;8.02;62.07;98609.75;4467492;32;34536;-54
2021/11/26 06:02:34;;;;;;;33.10;19.62;;;;;;;8.02;62.06;98601.97;4467902;32;34916;-56
2021/11/26 06:05:02;;;;;;;31.33;19.08;;;;;;;8.10;61.91;98601.91;4467767;32;34903;-56
2021/11/26 06:07:29;;;;;;;33.53;19.08;;;;;;;7.94;62.24;98597.75;4467448;32;34455;-55
2021/11/26 06:09:57;;;;;;;28.75;18.50;;;;;;;8.08;61.92;98582.94;4467019;32;34407;-55
2021/11/26 06:12:24;;;;;;;32.67;19.12;;;;;;;7.91;62.28;98584.81;4467549;32;35552;-53
2021/11/26 06:14:54;;;;;;;30.42;18.62;;;;;;;7.91;62.44;98587.41;4467240;32;34312;-49
2021/11/26 06:17:22;;;;;;;30.75;18.75;;;;;;;7.77;62.79;98576.31;4467484;32;33452;-54
2021/11/26 06:19:49;;;;;;;31.20;18.17;;;;;;;7.79;62.68;98569.41;4466739;32;33676;-52
2021/11/26 06:22:17;;;;;;;30.62;18.30;;;;;;;7.55;63.57;98569.59;4466985;32;35690;-55
2021/11/26 06:24:45;;;;;;;33.88;19.52;;;;;;;7.69;63.10;98566.03;4468007;32;35225;-56
2021/11/26 06:27:12;;;;;;;32.70;18.77;;;;;;;7.83;62.57;98561.59;4468386;32;34347;-52
2021/11/26 06:29:40;;;;;;;29.45;18.37;;;;;;;7.62;63.41;98556.59;4466969;32;34181;-57
2021/11/26 06:32:08;;;;;;;33.00;18.92;;;;;;;7.56;63.60;98545.44;4468160;32;35730;-52
2021/11/26 06:34:35;;;;;;;28.50;18.62;;;;;;;7.93;62.49;98536.47;4466630;32;34957;-52
2021/11/26 06:37:03;;;;;;;28.60;17.60;;;;;;;7.78;62.88;98539.19;4468881;32;33558;-51
2021/11/26 06:39:30;;;;;;;32.38;19.42;;;;;;;7.81;62.80;98529.69;4467782;32;33795;-57
2021/11/26 06:41:59;;;;;;;29.48;17.87;;;;;;;7.77;62.83;98522.84;4453772;32;35158;-54
2021/11/26 06:44:26;;;;;;;30.17;17.90;;;;;;;7.92;62.41;98534.75;4467621;32;34915;-53
2021/11/26 06:46:54;;;;;;;30.05;18.50;;;;;;;7.78;62.88;98518.50;4465813;32;33593;-53
2021/11/26 06:49:22;;;;;;;28.05;17.98;;;;;;;7.90;62.50;98515.78;4467718;32;34965;-54
2021/11/26 06:51:49;;;;;;;25.67;16.85;;;;;;;7.89;63.28;98522.69;4465866;32;36063;-57
2021/11/26 06:54:17;;;;;;;29.12;17.98;;;;;;;7.92;62.43;98508.84;4465880;32;34889;-51
2021/11/26 06:56:44;;;;;;;29.20;17.02;;;;;;;8.07;61.97;98498.34;4466053;32;34433;-53
2021/11/26 06:59:12;;;;;;;29.52;18.27;;;;;;;8.08;62.01;98500.09;4466015;32;34192;-56
2021/11/26 07:01:41;;;;;;;27.73;17.17;;;;;;;8.07;61.78;98498.34;4464453;32;35214;-52
2021/11/26 07:04:09;;;;;;;28.65;17.92;;;;;;;8.02;62.01;98494.94;4466029;32;34976;-51
2021/11/26 07:06:37;;;;;;;28.12;17.65;;;;;;;8.03;61.89;98488.91;4465644;32;33540;-55
2021/11/26 07:09:05;;;;;;;30.88;16.55;;;;;;;8.07;61.60;98483.69;4465335;32;34264;-56
2021/11/26 07:11:33;;;;;;;33.83;18.23;;;;;;;8.16;61.40;98475.81;4465299;32;35127;-50
2021/11/26 07:14:01;;;;;;;31.42;18.33;;;;;;;7.81;62.46;98466.69;4465368;32;34813;-53
2021/11/26 07:16:29;;;;;;;29.30;17.92;;;;;;;7.81;62.59;98464.13;4465332;32;33580;-54
2021/11/26 07:18:56;;;;;;;28.90;16.92;;;;;;;7.56;63.38;98453.13;4464297;32;34628;-50
2021/11/26 07:21:24;;;;;;;28.12;17.85;;;;;;;7.70;62.94;98451.28;4465190;32;35121;-52
2021/11/26 07:23:52;;;;;;;27.45;17.65;;;;;;;7.92;62.28;98452.78;4465430;32;34689;-55
2021/11/26 07:26:19;;;;;;;29.08;17.40;;;;;;;7.83;62.55;98449.41;4466093;32;33987;-54
2021/11/26 07:28:47;;;;;;;30.60;17.48;;;;;;;7.87;62.37;98448.50;4467377;32;34092;-52
2021/11/26 07:31:15;;;;;;;26.70;17.83;;;;;;;7.82;62.49;98455.50;4465990;32;34853;-52
2021/11/26 07:33:43;;;;;;;32.20;18.27;;;;;;;7.94;62.24;98465.72;4466912;32;35256;-55
2021/11/26 07:36:11;;;;;;;26.65;16.15;;;;;;;8.06;61.90;98457.78;4467499;32;34645;-54
2021/11/26 07:38:39;;;;;;;30.48;16.95;;;;;;;8.16;61.40;98462.00;4465615;32;34241;-53
2021/11/26 07:41:06;;;;;;;29.15;16.58;;;;;;;8.08;61.50;98461.25;4466223;32;35458;-51
2021/11/26 07:43:34;;;;;;;24.95;16.12;;;;;;;8.15;61.41;98457.69;4465795;32;35144;-50
2021/11/26 07:46:02;;;;;;;31.58;18.60;;;;;;;8.08;61.67;98464.66;4467339;32;33639;-52
2021/11/26 07:48:30;;;;;;;28.58;17.27;;;;;;;7.97;62.03;98452.72;4466741;32;34915;-53
2021/11/26 07:50:58;;;;;;;33.03;16.58;;;;;;;8.23;61.20;98447.22;4467213;32;34710;-54
2021/11/26 07:53:25;;;;;;;25.52;16.23;;;;;;;8.02;61.56;98450.94;4465844;32;34609;-51
2021/11/26 07:55:53;;;;;;;27.55;16.40;;;;;;;7.99;61.94;98446.66;4466843;32;34734;-51
2021/11/26 07:58:20;;;;;;;25.92;16.75;;;;;;;8.19;61.27;98421.38;4466933;32;35027;-50
2021/11/26 08:00:48;;;;;;;27.90;16.60;;;;;;;8.16;61.25;98426.59;4466920;32;34842;-46
2021/11/26 08:03:19;;;;;;;24.40;16.23;;;;;;;8.17;61.24;98415.37;4466955;32;34580;-51
2021/11/26 08:06:04;;;;;;;27.15;16.10;;;;;;;8.26;60.96;98405.75;4468074;32;34318;-49
2021/11/26 08:08:32;;;;;;;26.40;15.48;;;;;;;8.05;61.62;98396.53;4466779;32;33768;-56
2021/11/26 08:11:00;;;;;;;27.52;17.05;;;;;;;8.00;61.73;98388.81;4467327;32;35441;-50
2021/11/26 08:13:27;;;;;;;24.80;16.05;;;;;;;7.99;61.56;98383.66;4468279;32;34399;-51
2021/11/26 08:15:55;;;;;;;25.35;15.50;;;;;;;8.07;61.41;98374.94;4468332;32;33574;-52
2021/11/26 08:18:23;;;;;;;25.85;15.90;;;;;;;8.02;61.70;98381.03;4468220;32;34718;-53
2021/11/26 08:20:50;;;;;;;24.00;15.18;;;;;;;8.45;60.32;98371.84;4467426;32;35512;-55
2021/11/26 08:23:18;;;;;;;26.50;16.00;;;;;;;8.10;61.30;98364.53;4466403;32;34357;-48
2021/11/26 08:25:46;;;;;;;24.10;14.98;;;;;;;8.26;60.52;98346.19;4467586;32;33907;-54
2021/11/26 08:28:13;;;;;;;24.87;15.05;;;;;;;8.07;61.23;98345.56;4467947;32;34722;-52
2021/11/26 08:30:41;;;;;;;27.70;14.57;;;;;;;8.33;60.24;98348.69;4467303;32;34923;-54
2021/11/26 08:33:10;;;;;;;26.48;14.43;;;;;;;8.27;60.49;98350.53;4466770;32;34173;-50
2021/11/26 08:35:37;;;;;;;24.83;15.52;;;;;;;8.43;60.36;98347.69;4467185;32;33044;-51
2021/11/26 08:38:05;;;;;;;27.25;15.45;;;;;;;8.39;60.30;98345.19;4467863;32;34861;-53
2021/11/26 08:40:32;;;;;;;24.48;14.68;;;;;;;8.58;59.73;98347.44;4467041;32;34970;-51
2021/11/26 08:43:00;;;;;;;22.87;14.45;;;;;;;8.51;59.72;98345.81;4467471;32;34403;-53
2021/11/26 08:45:28;;;;;;;23.17;14.48;;;;;;;8.67;59.56;98352.50;4467776;32;33396;-50
2021/11/26 08:47:56;;;;;;;23.38;15.00;;;;;;;8.65;59.26;98351.66;4468169;32;33723;-52
2021/11/26 08:50:24;;;;;;;24.37;15.00;;;;;;;8.52;60.39;98347.56;4467746;32;35689;-50
2021/11/26 08:52:52;;;;;;;21.27;14.00;;;;;;;8.53;59.59;98330.28;4466876;32;34978;-54
2021/11/26 08:55:20;;;;;;;26.17;14.27;;;;;;;8.67;59.41;98316.22;4469289;32;34856;-52
2021/11/26 08:57:52;;;;;;;20.20;12.98;;;;;;;8.39;59.80;98320.09;4467718;32;33748;-52
2021/11/26 09:00:23;;;;;;;20.45;13.18;;;;;;;8.54;59.59;98309.50;4466610;32;36006;-51
2021/11/26 09:02:51;;;;;;;20.10;13.05;;;;;;;8.63;58.76;98305.91;4470264;32;35170;-52
2021/11/26 09:05:18;;;;;;;19.87;13.73;;;;;;;8.54;59.56;98304.31;4470513;32;34339;-53
2021/11/26 09:07:47;;;;;;;21.83;12.90;;;;;;;8.61;59.33;98299.91;4470173;32;33918;-52
2021/11/26 09:10:17;;;;;;;20.40;12.95;;;;;;;8.73;58.66;98300.56;4470416;32;34820;-52
2021/11/26 09:12:45;;;;;;;22.65;14.70;;;;;;;8.62;58.98;98294.72;4469909;32;34382;-54
2021/11/26 09:15:13;;;;;;;20.73;13.00;;;;;;;8.77;58.66;98298.78;4469985;32;34449;-54
2021/11/26 09:17:40;;;;;;;21.75;14.20;;;;;;;8.57;59.07;98291.34;4469951;32;33880;-50
2021/11/26 09:20:09;;;;;;;19.77;12.60;;;;;;;8.62;59.09;98281.75;4468441;32;35803;-52
2021/11/26 09:22:37;;;;;;;21.52;12.60;;;;;;;8.70;58.85;98279.03;4468534;32;34601;-56
2021/11/26 09:25:05;;;;;;;20.98;13.85;;;;;;;8.72;58.77;98267.72;4469963;32;34237;-53
2021/11/26 09:27:33;;;;;;;21.87;13.52;;;;;;;8.71;58.67;98265.19;4469871;32;34332;-51
2021/11/26 09:30:08;;;;;;;24.95;14.15;;;;;;;8.83;58.50;98255.47;4468489;32;35409;-52
2021/11/26 09:32:36;;;;;;;21.30;13.40;;;;;;;8.97;58.10;98243.97;4469804;32;34659;-54
2021/11/26 09:35:05;;;;;;;18.75;12.77;;;;;;;8.84;58.20;98241.59;4469789;32;33624;-52
2021/11/26 09:37:32;;;;;;;22.35;13.23;;;;;;;8.94;57.76;98231.91;4469738;32;33972;-54
2021/11/26 09:40:00;;;;;;;23.65;13.52;;;;;;;9.01;57.86;98228.31;4469662;32;34896;-53
2021/11/26 09:42:28;;;;;;;22.67;13.15;;;;;;;9.00;57.73;98231.81;4469589;32;34938;-54
2021/11/26 09:44:57;;;;;;;22.27;13.73;;;;;;;8.94;57.87;98212.94;4469841;32;34159;-47
2021/11/26 09:47:24;;;;;;;21.62;14.05;;;;;;;8.61;58.67;98214.38;4469779;32;33783;-52
2021/11/26 09:49:52;;;;;;;24.35;14.30;;;;;;;8.78;58.05;98204.56;4470097;32;34798;-52
2021/11/26 09:52:19;;;;;;;29.83;14.68;;;;;;;8.93;57.92;98204.28;4469692;32;34617;-52
2021/11/26 09:54:48;;;;;;;20.17;13.68;;;;;;;8.92;58.08;98196.53;4469802;32;33519;-51
2021/11/26 09:57:16;;;;;;;23.33;14.45;;;;;;;9.01;57.82;98191.19;4470067;32;35145;-54
2021/11/26 09:59:45;;;;;;;23.05;14.02;;;;;;;8.96;58.01;98180.91;4469665;32;35571;-51
2021/11/26 10:02:18;;;;;;;22.25;13.05;;;;;;;9.13;57.57;98180.56;4469591;32;35220;-52
2021/11/26 10:05:08;;;;;;;20.88;12.80;;;;;;;9.16;57.22;98176.16;4468393;32;33715;-54
2021/11/26 10:07:54;;;;;;;18.75;13.02;;;;;;;9.06;57.48;98164.25;4469536;32;34679;-51
2021/11/26 10:10:25;;;;;;;17.83;12.10;;;;;;;8.96;57.78;98151.53;4470031;32;35554;-50
2021/11/26 10:13:13;;;;;;;20.52;13.32;;;;;;;9.23;57.69;98146.63;4469456;32;34341;-51
2021/11/26 10:15:45;;;;;;;19.17;13.02;;;;;;;9.10;58.02;98144.31;4469620;32;33352;-54
2021/11/26 10:18:23;;;;;;;21.42;13.48;;;;;;;8.98;58.41;98140.25;4469342;32;34874;-52
2021/11/26 10:21:03;;;;;;;20.35;13.02;;;;;;;9.03;58.49;98124.59;4469461;32;34938;-53
2021/11/26 10:23:36;;;;;;;24.60;13.07;;;;;;;9.14;58.28;98131.25;4469452;32;35284;-49
2021/11/26 10:26:28;;;;;;;22.67;13.38;;;;;;;9.13;58.51;98119.16;4469682;32;34280;-55
2021/11/26 10:29:04;;;;;;;20.50;13.55;;;;;;;9.18;58.58;98113.88;4469506;32;34039;-51
2021/11/26 10:31:35;;;;;;;22.55;13.43;;;;;;;9.39;58.09;98116.00;4468346;32;34775;-52
2021/11/26 10:34:25;;;;;;;23.40;13.73;;;;;;;9.18;58.34;98111.28;4468384;32;34357;-54
2021/11/26 10:36:55;;;;;;;21.08;13.35;;;;;;;9.23;58.21;98102.53;4455477;32;33732;-56
2021/11/26 10:39:23;;;;;;;21.65;12.98;;;;;;;9.10;58.67;98098.50;4468146;32;33711;-51
2021/11/26 10:41:54;;;;;;;19.33;13.60;;;;;;;9.15;58.60;98095.81;4468893;32;35013;-49
2021/11/26 10:44:37;;;;;;;22.17;14.65;;;;;;;9.22;58.85;98092.19;4468826;32;34277;-54
2021/11/26 10:47:17;;;;;;;22.45;12.75;;;;;;;9.04;59.12;98090.84;4468190;32;32912;-51
2021/11/26 10:52:37;;;;;;;21.65;13.38;;;;;;;9.34;59.31;98082.38;4468376;32;34422;-52
2021/11/26 11:01:14;;;;;;;22.98;13.52;;;;;;;9.61;59.13;98083.50;4422778;32;33509;-52
2021/11/26 11:03:44;;;;;;;23.45;12.88;;;;;;;9.61;66.42;98074.84;4460334;32;34918;-52
2021/11/26 11:06:23;;;;;;;20.92;13.82;;;;;;;9.61;60.66;98067.06;4469183;32;35042;-50
2021/11/26 11:09:06;;;;;;;20.95;13.60;;;;;;;9.72;59.56;98062.47;4469208;32;33495;-52
2021/11/26 11:11:35;;;;;;;22.50;13.57;;;;;;;9.52;60.13;98057.75;4469257;32;35450;-55
2021/11/26 11:14:24;;;;;;;24.80;13.50;;;;;;;9.32;60.77;98052.16;4468704;32;35380;-50
2021/11/26 11:16:55;;;;;;;21.20;13.55;;;;;;;9.36;60.92;98043.44;4469072;32;35029;-50
2021/11/26 11:19:24;;;;;;;22.05;13.45;;;;;;;9.44;61.02;98036.31;4455226;32;34256;-56
2021/11/26 11:21:55;;;;;;;22.15;13.60;;;;;;;9.46;61.08;98027.59;4469521;32;33864;-51
2021/11/26 11:24:23;;;;;;;22.30;13.90;;;;;;;9.40;61.40;98019.97;4469397;32;35886;-51
2021/11/26 11:26:51;;;;;;;21.48;13.70;;;;;;;9.55;61.04;98016.16;4468809;32;34956;-50
2021/11/26 11:29:22;;;;;;;20.77;12.98;;;;;;;9.59;61.21;98004.81;4468525;32;34423;-51
2021/11/26 11:31:52;;;;;;;21.23;13.23;;;;;;;9.60;61.15;98001.34;4468713;32;34719;-53
2021/11/26 11:34:22;;;;;;;22.75;15.05;;;;;;;9.36;61.99;97995.00;4466760;32;35665;-52
2021/11/26 11:36:52;;;;;;;21.27;14.43;;;;;;;9.54;61.97;97978.97;4467120;32;34322;-51
2021/11/26 11:39:21;;;;;;;21.95;14.82;;;;;;;9.33;62.69;97981.25;4467487;32;34526;-51
2021/11/26 11:41:52;;;;;;;21.55;14.35;;;;;;;9.41;62.49;97981.91;4467212;32;34498;-51